Severna Park, MD

3:31 AM EDT on May 29, 2015 (GMT -0400)
Tipton | | Change Station
CLOSE
Current Station
Airport
Location: Fort Meade,
Elevation: 151 ft
Nearby Weather Stations

Elev 151 ft 39.09 °N, 76.76 °W | Updated 19 minutes ago

Overcast
Overcast
70 °F
Feels Like 70 °F
N
5
Wind Variable Wind from ENE

Today
High -- | Low -- °F
--% Chance of Precip.
Yesterday
High -- | Low -- °F
Precip. -- in
5:43 AM 8:23 PM
Waxing Gibbous, 82% visible
Pressure 30.23 in
Visibility 10.0 miles
Clouds Scattered Clouds 1200 ft
Scattered Clouds 5500 ft
Scattered Clouds 6500 ft
Dew Point 68 °F
Humidity 94%
Rainfall 0.00 in
Snow Depth Not available.
UV 0 out of 12
Pollen 7.00 out of 12
Air Quality Not available.
Flu Activity Sporadic
METAR KFME 290712Z AUTO 07004KT 10SM SCT012 SCT055 SCT065 21/20 A3023 RMK AO1

More Conditions Fewer Conditions

Pressure 30.23 in
Visibility 10.0 miles
Clouds Scattered Clouds 1200 ft
Scattered Clouds 5500 ft
Scattered Clouds 6500 ft
Dew Point 68 °F
Humidity 94%
Rainfall 0.00 in
Snow Depth Not available.
UV 0 out of 12
Pollen 7.00 out of 12
Air Quality Not available.
Flu Activity Sporadic
METAR KFME 290712Z AUTO 07004KT 10SM SCT012 SCT055 SCT065 21/20 A3023 RMK AO1

More Conditions Fewer Conditions

10-Day Weather Forecast

Almanac

Astronomy

May. 29, 2015 Rise Set
Actual Time
Civil Twilight
Nautical Twilight
Astronomical Twilight
Moon
Length of Visible Light
Length of Day
Tomorrow will be .
, % of the Moon is Illuminated

Today's Extremes

State Highs State Lows

Community

WunderPhotos

Upload Photos

1,825,215 photos uploaded!

WunderBlogs® & News

Nearby

Air Quality

  Air Quality AQ Index Pollutant
Not available.

Snow Depth

Station Depth Elevation

Earthquake Activity

City Distance Mag. Time & Date
Minimum magnitude displayed is 2.5.

Coastal Water Temperatures

Place Temperature

Stations

Nearby Weather Stations

Station Location Temp. Windchill Dew Point Humidity Wind Precip. Elev Updated Type